createdAt,value
2022-08-31T00:02:32.297Z,101641.27
2022-08-31T00:05:00.769Z,101644.79
2022-08-31T00:07:31.081Z,101639.68
2022-08-31T00:09:59.477Z,101643.02
2022-08-31T00:12:28.064Z,101640.20
2022-08-31T00:14:58.591Z,101642.08
2022-08-31T00:17:27.062Z,101642.00
2022-08-31T00:19:55.504Z,101643.26
2022-08-31T00:22:23.900Z,101646.36
2022-08-31T00:24:52.340Z,101645.17
2022-08-31T00:27:21.453Z,101645.30
2022-08-31T00:29:49.862Z,101648.67
2022-08-31T00:32:21.389Z,101649.55
2022-08-31T00:34:52.156Z,101655.49
2022-08-31T00:37:20.635Z,101653.60
2022-08-31T00:39:49.085Z,101648.09
2022-08-31T00:42:17.671Z,101651.55
2022-08-31T00:44:46.264Z,101651.63
2022-08-31T00:47:15.234Z,101653.38
2022-08-31T00:49:49.453Z,101648.55
2022-08-31T00:52:22.576Z,101648.89
2022-08-31T00:54:56.368Z,101651.56
2022-08-31T00:57:34.268Z,101649.64
2022-08-31T01:00:08.113Z,101646.52
2022-08-31T01:02:37.208Z,101645.83
2022-08-31T01:05:08.062Z,101645.92
2022-08-31T01:07:37.084Z,101646.06
2022-08-31T01:10:08.417Z,101643.45
2022-08-31T01:12:37.224Z,101641.55
2022-08-31T01:15:09.059Z,101642.14
2022-08-31T01:17:39.421Z,101644.45
2022-08-31T01:20:16.607Z,101642.45
2022-08-31T01:22:58.704Z,101642.31
2022-08-31T01:25:33.473Z,101645.03
2022-08-31T01:28:05.300Z,101648.14
2022-08-31T01:30:34.082Z,101653.51
2022-08-31T01:33:02.957Z,101654.59
2022-08-31T01:35:33.796Z,101653.71
2022-08-31T01:38:03.104Z,101652.98
2022-08-31T01:40:44.014Z,101650.50
2022-08-31T01:43:12.550Z,101649.94
2022-08-31T01:45:41.025Z,101647.32
2022-08-31T01:48:09.475Z,101651.11
2022-08-31T01:50:37.966Z,101656.95
2022-08-31T01:53:06.480Z,101653.27
2022-08-31T01:55:35.246Z,101654.44
2022-08-31T01:58:04.606Z,101655.24
2022-08-31T02:00:51.170Z,101653.07
2022-08-31T02:03:19.950Z,101654.75
2022-08-31T02:05:48.595Z,101654.16
2022-08-31T02:08:17.146Z,101654.45
2022-08-31T02:10:45.830Z,101653.46
2022-08-31T02:13:15.374Z,101659.36
2022-08-31T02:15:43.784Z,101658.73
2022-08-31T02:18:12.293Z,101658.11
2022-08-31T02:20:40.873Z,101657.66
2022-08-31T02:23:09.323Z,101667.25
2022-08-31T02:25:37.782Z,101667.05
2022-08-31T02:28:06.516Z,101662.43
2022-08-31T02:30:35.377Z,101662.68
2022-08-31T02:33:04.272Z,101661.61
2022-08-31T02:35:33.518Z,101664.66
2022-08-31T02:38:01.977Z,101662.27
2022-08-31T02:40:31.629Z,101658.53
2022-08-31T02:43:00.390Z,101658.92
2022-08-31T02:45:28.839Z,101658.19
2022-08-31T02:48:03.504Z,101655.34
2022-08-31T02:50:40.786Z,101654.42
2022-08-31T02:53:19.931Z,101647.98
2022-08-31T02:55:48.974Z,101646.38
2022-08-31T02:58:21.919Z,101637.94
2022-08-31T03:00:52.701Z,101638.55
2022-08-31T03:03:21.550Z,101642.84
2022-08-31T03:05:50.309Z,101635.48
2022-08-31T03:08:19.162Z,101635.04
2022-08-31T03:10:49.819Z,101638.42
2022-08-31T03:13:19.509Z,101638.96
2022-08-31T03:15:48.351Z,101635.14
2022-08-31T03:18:17.922Z,101643.00
2022-08-31T03:20:46.682Z,101642.52
2022-08-31T03:23:15.498Z,101643.35
2022-08-31T03:25:44.095Z,101651.66
2022-08-31T03:28:12.621Z,101660.54
2022-08-31T03:30:42.775Z,101661.23
2022-08-31T03:33:13.124Z,101663.77
2022-08-31T03:35:43.659Z,101661.56
2022-08-31T03:38:13.477Z,101662.98
2022-08-31T03:40:43.368Z,101662.55
2022-08-31T03:43:12.188Z,101660.77
2022-08-31T03:45:42.694Z,101662.70
2022-08-31T03:48:12.874Z,101662.50
2022-08-31T03:50:44.291Z,101665.54
2022-08-31T03:53:22.484Z,101670.29
2022-08-31T03:55:53.347Z,101665.73
2022-08-31T03:58:21.839Z,101665.21
2022-08-31T04:00:50.430Z,101662.55
2022-08-31T04:03:32.709Z,101659.40
2022-08-31T04:06:21.724Z,101659.54
2022-08-31T04:09:09.123Z,101661.21
2022-08-31T04:11:57.531Z,101661.34
2022-08-31T04:15:20.013Z,101658.19
2022-08-31T04:18:07.927Z,101661.45
2022-08-31T04:20:45.355Z,101658.90
2022-08-31T04:23:14.078Z,101655.89
2022-08-31T04:25:53.162Z,101657.64
2022-08-31T04:28:21.546Z,101656.60
2022-08-31T04:30:50.092Z,101653.37
2022-08-31T04:33:18.805Z,101652.96
2022-08-31T04:35:47.405Z,101661.23
2022-08-31T04:38:15.932Z,101663.45
2022-08-31T04:40:47.467Z,101665.60
2022-08-31T04:43:16.010Z,101670.67
2022-08-31T04:45:46.176Z,101670.90
2022-08-31T04:48:15.715Z,101673.39
2022-08-31T04:50:44.817Z,101674.50
2022-08-31T04:53:14.608Z,101673.46
2022-08-31T04:55:43.997Z,101671.99
2022-08-31T04:58:15.273Z,101674.81
2022-08-31T05:00:44.237Z,101679.91
2022-08-31T05:03:31.764Z,101681.35
2022-08-31T05:06:00.276Z,101684.77
2022-08-31T05:08:29.775Z,101683.92
2022-08-31T05:10:58.560Z,101690.80
2022-08-31T05:13:28.103Z,101691.25
2022-08-31T05:15:57.401Z,101690.31
2022-08-31T05:18:25.888Z,101695.48
2022-08-31T05:20:57.685Z,101694.35
2022-08-31T05:23:27.243Z,101690.91
2022-08-31T05:25:55.655Z,101693.55
2022-08-31T05:28:24.485Z,101694.81
2022-08-31T05:30:53.033Z,101694.02
2022-08-31T05:33:31.653Z,101701.77
2022-08-31T05:36:02.554Z,101703.41
2022-08-31T05:38:31.361Z,101705.76
2022-08-31T05:41:00.920Z,101704.41
2022-08-31T05:43:29.636Z,101704.42
2022-08-31T05:45:58.977Z,101707.50
2022-08-31T05:48:32.889Z,101703.98
2022-08-31T05:51:03.367Z,101702.58
2022-08-31T05:53:32.596Z,101708.02
2022-08-31T05:56:06.265Z,101708.85
2022-08-31T05:58:35.069Z,101708.75
2022-08-31T06:01:05.699Z,101710.75
2022-08-31T06:03:54.360Z,101714.42
2022-08-31T06:06:24.258Z,101715.70
2022-08-31T06:08:53.292Z,101715.95
2022-08-31T06:11:23.772Z,101717.46
2022-08-31T06:13:56.372Z,101722.02
2022-08-31T06:16:26.694Z,101719.36
2022-08-31T06:18:57.709Z,101726.38
2022-08-31T06:21:30.313Z,101725.15
2022-08-31T06:24:00.611Z,101726.16
2022-08-31T06:26:32.484Z,101731.24
2022-08-31T06:29:03.738Z,101725.09
2022-08-31T06:31:36.790Z,101723.02
2022-08-31T06:34:07.832Z,101720.15
2022-08-31T06:36:55.302Z,101718.64
2022-08-31T06:39:33.775Z,101720.58
2022-08-31T06:42:11.312Z,101719.73
2022-08-31T06:45:00.674Z,101720.06
2022-08-31T06:47:48.017Z,101716.15
2022-08-31T06:50:17.370Z,101718.13
2022-08-31T06:52:47.974Z,101717.10
2022-08-31T06:55:25.432Z,101716.64
2022-08-31T06:58:12.814Z,101717.56
2022-08-31T07:01:10.672Z,101718.91
2022-08-31T07:03:54.657Z,101715.02
2022-08-31T07:06:26.997Z,101710.89
2022-08-31T07:08:58.337Z,101708.69
2022-08-31T07:11:32.803Z,101711.66
2022-08-31T07:14:04.502Z,101713.82
2022-08-31T07:16:33.356Z,101713.27
2022-08-31T07:19:03.769Z,101714.92
2022-08-31T07:21:35.921Z,101716.11
2022-08-31T07:24:06.125Z,101715.48
2022-08-31T07:26:37.523Z,101712.19
2022-08-31T07:29:09.436Z,101714.52
2022-08-31T07:31:44.211Z,101718.17
2022-08-31T07:34:15.712Z,101719.92
2022-08-31T07:37:22.502Z,101722.09
2022-08-31T07:40:10.185Z,101722.06
2022-08-31T07:42:43.306Z,101722.11
2022-08-31T07:45:19.449Z,101718.66
2022-08-31T07:47:48.247Z,101726.33
2022-08-31T07:50:19.264Z,101727.92
2022-08-31T07:52:58.318Z,101731.63
2022-08-31T07:55:54.957Z,101728.38
2022-08-31T07:58:39.841Z,101731.24
2022-08-31T08:01:09.239Z,101732.23
2022-08-31T08:03:43.593Z,101732.08
2022-08-31T08:06:32.462Z,101734.47
2022-08-31T08:09:24.034Z,101734.52
2022-08-31T08:12:12.412Z,101732.19
2022-08-31T08:14:54.126Z,101734.34
2022-08-31T08:17:41.778Z,101730.30
2022-08-31T08:20:14.032Z,101732.11
2022-08-31T08:22:55.199Z,101732.64
2022-08-31T08:25:35.457Z,101732.13
2022-08-31T08:28:35.509Z,101734.75
2022-08-31T08:31:00.793Z,101738.11
2022-08-31T08:33:33.502Z,101734.79
2022-08-31T08:36:06.861Z,101734.34
2022-08-31T08:38:38.353Z,101727.14
2022-08-31T08:41:13.132Z,101732.71
2022-08-31T08:43:44.273Z,101732.63
2022-08-31T08:46:34.827Z,101733.54
2022-08-31T08:49:14.449Z,101728.86
2022-08-31T08:51:44.761Z,101730.77
2022-08-31T08:54:22.822Z,101723.04
2022-08-31T08:56:51.916Z,101729.01
2022-08-31T08:59:21.483Z,101731.90
2022-08-31T09:01:55.760Z,101730.54
2022-08-31T09:04:39.898Z,101728.92
2022-08-31T09:08:23.455Z,101724.07
2022-08-31T09:11:08.606Z,101731.34
2022-08-31T09:13:49.698Z,101725.42
2022-08-31T09:16:27.684Z,101725.85
2022-08-31T09:19:01.148Z,101724.29
2022-08-31T09:21:36.382Z,101723.63
2022-08-31T09:24:09.332Z,101718.81
2022-08-31T09:27:17.348Z,101715.25
2022-08-31T09:29:53.059Z,101719.83
2022-08-31T09:32:26.641Z,101724.06
2022-08-31T09:35:00.896Z,101725.93
2022-08-31T09:37:32.940Z,101723.61
2022-08-31T09:40:16.255Z,101725.79
2022-08-31T09:43:05.589Z,101721.84
2022-08-31T09:45:40.058Z,101719.05
2022-08-31T09:48:10.747Z,101718.41
2022-08-31T09:50:44.399Z,101717.04
2022-08-31T09:53:37.020Z,101718.42
2022-08-31T09:56:13.450Z,101716.00
2022-08-31T09:58:48.078Z,101713.67
2022-08-31T10:01:21.943Z,101708.83
2022-08-31T10:03:50.503Z,101707.35
2022-08-31T10:06:45.606Z,101708.61
2022-08-31T10:09:23.189Z,101706.19
2022-08-31T10:11:57.071Z,101706.45
2022-08-31T10:14:33.613Z,101705.27
2022-08-31T10:17:09.585Z,101706.48
2022-08-31T10:19:52.735Z,101708.66
2022-08-31T10:22:29.759Z,101710.86
2022-08-31T10:25:13.932Z,101710.98
2022-08-31T10:27:47.980Z,101707.38
2022-08-31T10:30:24.175Z,101708.05
2022-08-31T10:32:59.529Z,101709.52
2022-08-31T10:35:37.074Z,101709.54
2022-08-31T10:38:23.565Z,101711.66
2022-08-31T10:41:02.913Z,101715.77
2022-08-31T10:43:38.294Z,101714.33
2022-08-31T10:46:07.327Z,101717.98
2022-08-31T10:48:36.737Z,101715.44
2022-08-31T10:51:17.625Z,101709.38
2022-08-31T10:54:11.993Z,101711.36
2022-08-31T10:56:58.597Z,101713.39
2022-08-31T10:59:37.780Z,101707.89
2022-08-31T11:02:37.956Z,101704.73
2022-08-31T11:05:22.354Z,101707.22
2022-08-31T11:07:59.967Z,101707.61
2022-08-31T11:10:46.840Z,101711.17
2022-08-31T11:13:28.665Z,101709.48
2022-08-31T11:16:17.341Z,101704.95
2022-08-31T11:19:09.143Z,101703.50
2022-08-31T11:21:54.212Z,101702.88
2022-08-31T11:24:48.560Z,101697.67
2022-08-31T11:27:22.958Z,101695.13
2022-08-31T11:29:56.847Z,101693.02
2022-08-31T11:32:31.503Z,101691.98
2022-08-31T11:35:07.728Z,101695.82
2022-08-31T11:38:00.057Z,101693.39
2022-08-31T11:41:05.110Z,101689.36
2022-08-31T11:43:54.184Z,101683.55
2022-08-31T11:46:42.456Z,101688.52
2022-08-31T11:49:39.539Z,101692.08
2022-08-31T11:52:24.877Z,101690.43
2022-08-31T11:55:24.604Z,101690.67
2022-08-31T11:58:25.388Z,101689.42
2022-08-31T12:00:58.806Z,101680.70
2022-08-31T12:03:42.559Z,101674.61
2022-08-31T12:06:27.465Z,101676.66
2022-08-31T12:09:18.054Z,101675.62
2022-08-31T12:11:52.751Z,101679.44
2022-08-31T12:14:37.347Z,101679.70
2022-08-31T12:17:13.481Z,101683.57
2022-08-31T12:20:01.687Z,101679.54
2022-08-31T12:23:31.420Z,101674.63
2022-08-31T12:26:15.016Z,101670.73
2022-08-31T12:29:04.664Z,101667.56
2022-08-31T12:31:37.092Z,101659.77
2022-08-31T12:34:07.974Z,101654.06
2022-08-31T12:36:37.826Z,101655.55
2022-08-31T12:39:09.196Z,101651.36
2022-08-31T12:41:42.925Z,101648.23
2022-08-31T12:44:14.850Z,101654.86
2022-08-31T12:47:01.287Z,101653.77
2022-08-31T12:49:59.217Z,101649.30
2022-08-31T12:56:41.906Z,101647.41
2022-08-31T13:00:00.663Z,101643.44
2022-08-31T13:02:38.170Z,101642.10
2022-08-31T13:05:21.678Z,101642.09
2022-08-31T13:07:51.650Z,101643.21
2022-08-31T13:10:28.454Z,101642.65
2022-08-31T13:13:00.911Z,101639.16
2022-08-31T13:15:36.201Z,101638.83
2022-08-31T13:18:12.745Z,101639.30
2022-08-31T13:20:43.464Z,101638.59
2022-08-31T13:23:14.711Z,101641.90
2022-08-31T13:25:47.240Z,101644.81
2022-08-31T13:28:29.914Z,101649.05
2022-08-31T13:31:03.485Z,101648.65
2022-08-31T13:33:35.055Z,101648.17
2022-08-31T13:36:09.081Z,101643.19
2022-08-31T13:38:51.256Z,101640.52
2022-08-31T13:41:27.045Z,101642.11
2022-08-31T13:43:58.539Z,101647.55
2022-08-31T13:46:42.245Z,101644.56
2022-08-31T13:49:31.672Z,101640.33
2022-08-31T13:52:01.277Z,101634.60
2022-08-31T13:54:32.029Z,101634.56
2022-08-31T13:57:18.907Z,101629.91
2022-08-31T13:59:54.655Z,101636.85
2022-08-31T14:02:37.299Z,101634.34
2022-08-31T14:05:09.812Z,101632.46
2022-08-31T14:07:58.123Z,101629.66
2022-08-31T14:10:34.508Z,101627.90
2022-08-31T14:13:13.264Z,101625.36
2022-08-31T14:15:55.794Z,101628.69
2022-08-31T14:18:27.919Z,101626.41
2022-08-31T14:21:21.978Z,101623.33
2022-08-31T14:23:53.751Z,101623.95
2022-08-31T14:26:28.390Z,101625.70
2022-08-31T14:29:00.013Z,101627.34
2022-08-31T14:31:33.233Z,101627.52
2022-08-31T14:34:21.453Z,101627.18
2022-08-31T14:36:55.181Z,101626.49
2022-08-31T14:39:30.291Z,101620.11
2022-08-31T14:42:01.869Z,101622.55
2022-08-31T14:44:35.873Z,101628.21
2022-08-31T14:47:05.523Z,101634.17
2022-08-31T14:49:36.594Z,101641.56
2022-08-31T14:52:07.469Z,101638.06
2022-08-31T14:54:36.507Z,101633.15
2022-08-31T14:57:09.433Z,101627.67
2022-08-31T14:59:40.215Z,101631.52
2022-08-31T15:02:11.589Z,101632.01
2022-08-31T15:04:45.631Z,101636.86
2022-08-31T15:07:15.991Z,101638.00
2022-08-31T15:09:46.205Z,101638.69
2022-08-31T15:12:15.432Z,101641.31
2022-08-31T15:14:46.606Z,101635.20
2022-08-31T15:17:18.925Z,101639.67
2022-08-31T15:19:54.710Z,101635.10
2022-08-31T15:22:25.571Z,101633.69
2022-08-31T15:24:55.002Z,101629.83
2022-08-31T15:27:28.046Z,101628.81
2022-08-31T15:30:03.890Z,101634.75
2022-08-31T15:32:34.373Z,101633.17
2022-08-31T15:35:03.046Z,101631.45
2022-08-31T15:37:32.327Z,101629.02
2022-08-31T15:40:04.526Z,101632.27
2022-08-31T15:42:39.373Z,101634.07
2022-08-31T15:45:10.473Z,101636.84
2022-08-31T15:47:59.024Z,101634.91
2022-08-31T15:50:31.555Z,101630.34
2022-08-31T15:53:09.294Z,101625.15
2022-08-31T15:55:39.874Z,101624.36
2022-08-31T15:58:09.516Z,101626.80
2022-08-31T16:00:41.164Z,101620.81
2022-08-31T16:03:10.174Z,101614.66
2022-08-31T16:05:39.576Z,101621.05
2022-08-31T16:08:13.593Z,101616.03
2022-08-31T16:10:44.784Z,101617.20
2022-08-31T16:13:15.499Z,101612.30
2022-08-31T16:15:50.375Z,101615.85
2022-08-31T16:18:20.514Z,101613.35
2022-08-31T16:20:49.839Z,101611.56
2022-08-31T16:23:20.533Z,101607.78
2022-08-31T16:25:49.587Z,101606.48
2022-08-31T16:28:19.513Z,101601.64
2022-08-31T16:30:48.444Z,101602.68
2022-08-31T16:33:20.376Z,101600.47
2022-08-31T16:35:49.636Z,101600.66
2022-08-31T16:38:22.179Z,101600.92
2022-08-31T16:40:52.554Z,101598.23
2022-08-31T16:43:21.393Z,101601.41
2022-08-31T16:45:49.941Z,101601.40
2022-08-31T16:48:36.738Z,101603.21
2022-08-31T16:51:14.462Z,101601.92
2022-08-31T16:53:46.574Z,101600.35
2022-08-31T16:56:16.293Z,101601.21
2022-08-31T16:58:52.199Z,101600.23
2022-08-31T17:01:27.296Z,101598.28
2022-08-31T17:04:01.042Z,101599.05
2022-08-31T17:06:31.521Z,101603.95
2022-08-31T17:09:02.864Z,101600.70
2022-08-31T17:11:35.190Z,101602.49
2022-08-31T17:14:07.261Z,101599.64
2022-08-31T17:16:38.049Z,101604.46
2022-08-31T17:19:12.492Z,101603.64
2022-08-31T17:21:49.199Z,101610.77
2022-08-31T17:24:25.692Z,101609.32
2022-08-31T17:26:58.977Z,101613.98
2022-08-31T17:29:30.148Z,101613.61
2022-08-31T17:32:00.500Z,101615.17
2022-08-31T17:34:34.182Z,101625.02
2022-08-31T17:37:07.140Z,101624.79
2022-08-31T17:39:35.700Z,101626.77
2022-08-31T17:42:05.118Z,101630.60
2022-08-31T17:44:34.942Z,101631.64
2022-08-31T17:47:04.086Z,101631.08
2022-08-31T17:49:37.721Z,101632.13
2022-08-31T17:52:07.857Z,101631.02
2022-08-31T17:54:41.371Z,101635.51
2022-08-31T17:57:14.022Z,101634.91
2022-08-31T17:59:45.644Z,101636.94
2022-08-31T18:02:17.538Z,101647.67
2022-08-31T18:04:48.422Z,101651.46
2022-08-31T18:07:17.401Z,101657.84
2022-08-31T18:09:46.665Z,101656.27
2022-08-31T18:12:21.316Z,101659.58
2022-08-31T18:14:53.105Z,101657.44
2022-08-31T18:17:22.340Z,101654.84
2022-08-31T18:19:50.961Z,101658.56
2022-08-31T18:22:20.447Z,101658.48
2022-08-31T18:24:49.173Z,101662.94
2022-08-31T18:27:17.802Z,101661.11
2022-08-31T18:29:46.540Z,101662.69
2022-08-31T18:32:15.521Z,101666.84
2022-08-31T18:34:45.624Z,101668.46
2022-08-31T18:37:21.444Z,101672.77
2022-08-31T18:40:08.826Z,101673.05
2022-08-31T18:42:57.511Z,101672.17
2022-08-31T18:45:27.232Z,101674.27
2022-08-31T18:48:23.266Z,101672.73
2022-08-31T18:50:48.397Z,101672.88
2022-08-31T18:53:28.344Z,101673.31
2022-08-31T18:56:07.760Z,101667.82
2022-08-31T18:58:37.098Z,101674.67
2022-08-31T19:01:09.579Z,101675.95
2022-08-31T19:03:38.919Z,101681.00
2022-08-31T19:06:08.229Z,101677.70
2022-08-31T19:08:36.696Z,101678.59
2022-08-31T19:11:07.814Z,101674.81
2022-08-31T19:13:42.649Z,101672.89
2022-08-31T19:16:17.066Z,101674.14
2022-08-31T19:18:47.995Z,101675.94
2022-08-31T19:21:24.923Z,101675.47
2022-08-31T19:23:53.627Z,101674.91
2022-08-31T19:26:26.335Z,101679.14
2022-08-31T19:28:55.972Z,101676.85
2022-08-31T19:31:27.139Z,101676.79
2022-08-31T19:33:56.990Z,101674.83
2022-08-31T19:36:28.091Z,101673.49
2022-08-31T19:38:57.161Z,101676.24
2022-08-31T19:41:27.392Z,101679.96
2022-08-31T19:44:07.672Z,101676.11
2022-08-31T19:46:39.152Z,101674.69
2022-08-31T19:49:10.382Z,101677.33
2022-08-31T19:51:41.388Z,101676.23
2022-08-31T19:54:11.789Z,101677.83
2022-08-31T19:56:43.136Z,101678.14
2022-08-31T19:59:17.455Z,101681.28
2022-08-31T20:01:47.939Z,101682.91
2022-08-31T20:04:18.432Z,101683.52
2022-08-31T20:06:49.105Z,101681.23
2022-08-31T20:09:22.686Z,101680.33
2022-08-31T20:11:53.781Z,101684.56
2022-08-31T20:14:23.129Z,101687.21
2022-08-31T20:16:52.345Z,101687.88
2022-08-31T20:19:24.364Z,101687.98
2022-08-31T20:21:54.160Z,101691.45
2022-08-31T20:24:25.237Z,101687.89
2022-08-31T20:27:00.998Z,101694.02
2022-08-31T20:29:33.772Z,101696.52
2022-08-31T20:32:04.215Z,101697.37
2022-08-31T20:34:32.789Z,101699.67
2022-08-31T20:37:02.489Z,101700.85
2022-08-31T20:39:34.640Z,101704.30
2022-08-31T20:42:05.685Z,101706.66
2022-08-31T20:44:36.501Z,101710.41
2022-08-31T20:47:25.445Z,101712.15
2022-08-31T20:49:56.635Z,101717.17
2022-08-31T20:52:27.019Z,101718.34
2022-08-31T20:55:02.042Z,101713.48
2022-08-31T20:57:32.890Z,101714.46
2022-08-31T21:00:03.268Z,101716.26
2022-08-31T21:02:33.030Z,101713.83
2022-08-31T21:05:27.217Z,101717.52
2022-08-31T21:07:51.749Z,101718.08
2022-08-31T21:10:36.748Z,101720.52
2022-08-31T21:13:09.504Z,101718.73
2022-08-31T21:15:42.553Z,101720.96
2022-08-31T21:18:11.747Z,101723.39
2022-08-31T21:20:40.310Z,101722.33
2022-08-31T21:23:09.736Z,101724.64
2022-08-31T21:25:43.166Z,101727.36
2022-08-31T21:28:13.459Z,101723.09
2022-08-31T21:30:42.023Z,101724.89
2022-08-31T21:33:10.437Z,101724.23
2022-08-31T21:35:39.214Z,101724.11
2022-08-31T21:38:11.483Z,101726.83
2022-08-31T21:40:47.496Z,101725.56
2022-08-31T21:43:16.103Z,101724.50
2022-08-31T21:45:44.833Z,101726.87
2022-08-31T21:48:13.327Z,101725.75
2022-08-31T21:50:41.757Z,101725.69
2022-08-31T21:53:10.195Z,101725.16
2022-08-31T21:55:38.747Z,101722.94
2022-08-31T21:58:07.389Z,101721.98
2022-08-31T22:00:41.405Z,101722.98
2022-08-31T22:03:10.619Z,101722.48
2022-08-31T22:05:40.941Z,101725.42
2022-08-31T22:08:09.658Z,101725.42
2022-08-31T22:10:40.793Z,101727.35
2022-08-31T22:13:10.666Z,101726.39
2022-08-31T22:15:39.661Z,101731.99
2022-08-31T22:18:45.945Z,101732.23
2022-08-31T22:20:58.621Z,101736.95
2022-08-31T22:23:27.098Z,101737.65
2022-08-31T22:25:55.737Z,101732.01
2022-08-31T22:28:26.947Z,101736.24
2022-08-31T22:30:55.801Z,101735.57
2022-08-31T22:33:24.353Z,101732.06
2022-08-31T22:36:31.861Z,101734.08
2022-08-31T22:39:02.929Z,101733.69
2022-08-31T22:41:33.611Z,101738.29
2022-08-31T22:44:03.552Z,101733.38
2022-08-31T22:46:32.382Z,101732.85
2022-08-31T22:49:01.259Z,101732.26
2022-08-31T22:51:29.981Z,101728.34
2022-08-31T22:53:59.497Z,101722.99
2022-08-31T22:56:31.409Z,101722.48
2022-08-31T22:59:02.000Z,101722.03
2022-08-31T23:01:32.911Z,101718.20
2022-08-31T23:04:05.406Z,101716.29
2022-08-31T23:06:35.624Z,101716.40
2022-08-31T23:09:07.352Z,101713.36
2022-08-31T23:11:37.094Z,101713.89
2022-08-31T23:14:08.397Z,101709.71
2022-08-31T23:16:40.052Z,101710.39
2022-08-31T23:19:11.878Z,101711.78
2022-08-31T23:21:45.276Z,101712.34
2022-08-31T23:24:16.072Z,101707.00
2022-08-31T23:26:46.249Z,101706.13
2022-08-31T23:29:17.445Z,101708.79
2022-08-31T23:31:48.102Z,101714.35
2022-08-31T23:34:17.426Z,101708.46
2022-08-31T23:36:48.959Z,101709.91
2022-08-31T23:39:19.724Z,101706.71
2022-08-31T23:41:48.315Z,101705.59
2022-08-31T23:44:18.760Z,101701.86
2022-08-31T23:46:47.315Z,101703.73
2022-08-31T23:49:18.025Z,101702.45
2022-08-31T23:51:47.453Z,101704.83
2022-08-31T23:54:17.401Z,101700.80
2022-08-31T23:56:47.798Z,101702.64
2022-08-31T23:59:19.107Z,101702.52
